Sevilla Aeropuerto en Andalucia

latitud = 37° 25' 00''N | longitud = 005° 52' 45''W
34 metros sobre el nivel del mar |

Fecha, hora, temperatura, viento dirección y velocidad, humedad y presión.

  • 22-11-2017 09:00:00 | 6.20°C | Norte |9.00 km/h | 78.00% | 1013.90 hPa
  • 22-11-2017 08:00:00 | 5.50°C | Norte |9.00 km/h | 81.00% | 1013.50 hPa
  • 22-11-2017 07:00:00 | 5.40°C | Noroeste |9.00 km/h | 81.00% | 1013.40 hPa
  • 22-11-2017 06:00:00 | 5.30°C | Noroeste |3.00 km/h | 80.00% | 1013.20 hPa
  • 22-11-2017 05:00:00 | 6.40°C | Norte |3.00 km/h | 75.00% | 1013.60 hPa
  • 22-11-2017 04:00:00 | 6.50°C | Norte |4.00 km/h | 77.00% | 1013.90 hPa
  • 22-11-2017 03:00:00 | 7.10°C | Nordeste |6.00 km/h | 74.00% | 1014.10 hPa
  • 22-11-2017 02:00:00 | 7.80°C | Calma |0.00 km/h | 72.00% | 1014.60 hPa
  • 22-11-2017 01:00:00 | 7.90°C | Noroeste |5.00 km/h | 72.00% | 1014.90 hPa
  • 22-11-2017 00:00:00 | 8.20°C | Sudeste |3.00 km/h | 68.00% | 1015.20 hPa
  • 21-11-2017 23:00:00 | 10.10°C | Calma |0.00 km/h | 65.00% | 1015.30 hPa
  • 21-11-2017 22:00:00 | 11.00°C | Nordeste |3.00 km/h | 63.00% | 1015.30 hPa
  • 21-11-2017 21:00:00 | 11.30°C | Este |4.00 km/h | 58.00% | 1015.50 hPa
  • 21-11-2017 20:00:00 | 12.60°C | Sudeste |6.00 km/h | 57.00% | 1015.40 hPa
  • 21-11-2017 19:00:00 | 16.40°C | Calma |0.00 km/h | 45.00% | 1015.10 hPa
  • 21-11-2017 18:00:00 | 21.60°C | Oeste |5.00 km/h | 27.00% | 1015.10 hPa
  • 21-11-2017 17:00:00 | 23.90°C | Oeste |7.00 km/h | 22.00% | 1015.20 hPa
  • 21-11-2017 16:00:00 | 23.60°C | Noroeste |4.00 km/h | 22.00% | 1015.40 hPa
  • 21-11-2017 15:00:00 | 22.90°C | Norte |4.00 km/h | 25.00% | 1015.80 hPa
  • 21-11-2017 14:00:00 | 21.90°C | Este |2.00 km/h | 29.00% | 1016.40 hPa
  • 21-11-2017 13:00:00 | 19.70°C | Nordeste |6.00 km/h | 33.00% | 1017.40 hPa
  • 21-11-2017 12:00:00 | 17.50°C | Nordeste |7.00 km/h | 38.00% | 1018.30 hPa
  • 21-11-2017 11:00:00 | 15.00°C | Nordeste |14.00 km/h | 46.00% | 1018.80 hPa
  • 21-11-2017 10:00:00 | 11.70°C | Nordeste |12.00 km/h | 59.00% | 1018.80 hPa
    • Datos gráficos mensuales de Sevilla Aeropuerto: